Latest Weather Observations for Spitfire Channel

IDQ60801

Issued at 5:02 pm EST Monday 27 April 2015 (issued every 30 minutes, with the page automatically refreshed every 10 minutes)

About weather observations | Map of weather stations | Latest weather observations for QLD | Other Formats
Station Details ID: 040927 Name: SPITFIRE CHANNEL BEACON Lat: -27.05 Lon: 153.27 Height: 7.0 m
Data from the previous 72 hours. | See also: Recent months for locations in Queensland
Date/Time
EST
Temp
°C
App
Temp
°C
Dew
Point
Rel
Hum
%
Delta-T
°C
Wind Press
QNH
hPa
Press
MSL
hPa
Rain
since 9 am
mm
Dir
 
Spd
km/h
Gust
km/h
Spd
kts
Gust
kts
27/05:00pm - - - - - E 9 13 5 7 - - -
27/04:30pm - - - - - ESE 7 9 4 5 - - -
27/04:00pm - - - - - ESE 9 9 5 5 - - -
27/03:30pm - - - - - SE 9 11 5 6 - - -
27/03:00pm - - - - - ESE 11 13 6 7 - - -
27/02:30pm - - - - - SE 11 13 6 7 - - -
27/02:00pm - - - - - SSE 13 17 7 9 - - -
27/01:30pm - - - - - SSE 13 17 7 9 - - -
27/01:00pm - - - - - SSE 15 19 8 10 - - -
27/12:30pm - - - - - S 15 17 8 9 - - -
27/12:00pm - - - - - S 17 20 9 11 - - -
27/11:30am - - - - - S 17 20 9 11 - - -
27/11:00am - - - - - S 19 22 10 12 - - -
27/10:30am - - - - - S 19 24 10 13 - - -
27/10:00am - - - - - S 22 26 12 14 - - -
27/09:30am - - - - - SSW 20 24 11 13 - - -
27/09:00am - - - - - SSW 20 24 11 13 - - -
27/08:30am - - - - - SSW 22 24 12 13 - - -
27/08:00am - - - - - SW 17 20 9 11 - - -
27/07:30am - - - - - SW 19 22 10 12 - - -
27/07:00am - - - - - SW 17 20 9 11 - - -
27/06:30am - - - - - SW 19 20 10 11 - - -
27/06:00am - - - - - SW 17 20 9 11 - - -
27/05:30am - - - - - SW 19 22 10 12 - - -
27/05:00am - - - - - SW 15 17 8 9 - - -
27/04:30am - - - - - SW 13 15 7 8 - - -
27/04:00am - - - - - SW 15 19 8 10 - - -
27/03:30am - - - - - WSW 13 15 7 8 - - -
27/03:00am - - - - - SW 17 20 9 11 - - -
27/02:30am - - - - - SW 17 20 9 11 - - -
27/02:00am - - - - - SW 20 26 11 14 - - -
27/01:30am - - - - - SW 20 26 11 14 - - -
27/01:00am - - - - - SSW 30 35 16 19 - - -
27/12:30am - - - - - SSW 33 39 18 21 - - -
27/12:00am - - - - - SSW 35 44 19 24 - - -
 
Date/Time
EST
Temp
°C
App
Temp
°C
Dew
Point
Rel
Hum
%
Delta-T
°C
Wind Press
QNH
hPa
Press
MSL
hPa
Rain
since 9 am
mm
Dir
 
Spd
km/h
Gust
km/h
Spd
kts
Gust
kts
26/11:30pm - - - - - SSW 37 44 20 24 - - -
26/11:00pm - - - - - SSW 37 43 20 23 - - -
26/10:30pm - - - - - SSW 39 46 21 25 - - -
26/10:00pm - - - - - SW 32 39 17 21 - - -
26/09:30pm - - - - - SW 33 43 18 23 - - -
26/09:00pm - - - - - SW 43 52 23 28 - - -
26/08:30pm - - - - - SW 46 57 25 31 - - -
26/08:00pm - - - - - SW 35 44 19 24 - - -
26/07:30pm - - - - - SW 33 39 18 21 - - -
26/07:00pm - - - - - SW 32 35 17 19 - - -
26/06:30pm - - - - - WSW 30 35 16 19 - - -
26/06:00pm - - - - - SW 33 43 18 23 - - -
26/05:30pm - - - - - SW 30 39 16 21 - - -
26/05:00pm - - - - - SW 37 46 20 25 - - -
26/04:30pm - - - - - SW 32 39 17 21 - - -
26/04:00pm - - - - - SW 33 44 18 24 - - -
26/03:30pm - - - - - SW 33 41 18 22 - - -
26/03:00pm - - - - - SW 30 37 16 20 - - -
26/02:30pm - - - - - SW 33 46 18 25 - - -
26/02:00pm - - - - - SW 30 37 16 20 - - -
26/01:30pm - - - - - SW 37 46 20 25 - - -
26/01:00pm - - - - - SW 35 46 19 25 - - -
26/12:30pm - - - - - SW 32 41 17 22 - - -
26/12:00pm - - - - - SW 37 50 20 27 - - -
26/11:30am - - - - - WSW 37 46 20 25 - - -
26/11:00am - - - - - WSW 33 43 18 23 - - -
26/10:30am - - - - - SW 28 35 15 19 - - -
26/10:00am - - - - - SW 35 43 19 23 - - -
26/09:30am - - - - - SW 35 44 19 24 - - -
26/09:00am - - - - - SW 39 54 21 29 - - -
26/08:30am - - - - - SW 37 50 20 27 - - -
26/08:00am - - - - - SW 39 52 21 28 - - -
26/07:30am - - - - - SW 37 48 20 26 - - -
26/07:00am - - - - - SW 35 46 19 25 - - -
26/06:30am - - - - - SW 37 46 20 25 - - -
26/06:00am - - - - - SW 39 50 21 27 - - -
26/05:30am - - - - - SW 39 48 21 26 - - -
26/05:00am - - - - - SW 30 39 16 21 - - -
26/04:30am - - - - - SW 24 28 13 15 - - -
26/04:00am - - - - - WSW 20 24 11 13 - - -
26/03:30am - - - - - WSW 22 26 12 14 - - -
26/03:00am - - - - - WSW 24 30 13 16 - - -
26/02:30am - - - - - WSW 24 30 13 16 - - -
26/02:00am - - - - - WSW 22 26 12 14 - - -
26/01:30am - - - - - WSW 20 24 11 13 - - -
26/01:00am - - - - - W 22 24 12 13 - - -
26/12:30am - - - - - W 24 30 13 16 - - -
26/12:00am - - - - - WNW 17 19 9 10 - - -
 
Date/Time
EST
Temp
°C
App
Temp
°C
Dew
Point
Rel
Hum
%
Delta-T
°C
Wind Press
QNH
hPa
Press
MSL
hPa
Rain
since 9 am
mm
Dir
 
Spd
km/h
Gust
km/h
Spd
kts
Gust
kts
25/11:30pm - - - - - NW 17 20 9 11 - - -
25/11:00pm - - - - - WNW 19 22 10 12 - - -
25/10:30pm - - - - - NW 26 30 14 16 - - -
25/10:00pm - - - - - NW 20 24 11 13 - - -
25/09:30pm - - - - - NW 20 22 11 12 - - -
25/09:00pm - - - - - NNW 20 22 11 12 - - -
25/08:30pm - - - - - NNW 19 24 10 13 - - -
25/08:00pm - - - - - N 19 22 10 12 - - -
25/07:30pm - - - - - N 17 20 9 11 - - -
25/07:00pm - - - - - N 13 15 7 8 - - -
25/06:30pm - - - - - N 17 19 9 10 - - -
25/06:00pm - - - - - NNE 15 19 8 10 - - -
25/05:30pm - - - - - NNE 15 17 8 9 - - -
25/05:00pm - - - - - NNE 15 17 8 9 - - -
25/04:30pm - - - - - NNE 13 15 7 8 - - -
25/04:00pm - - - - - NNE 11 13 6 7 - - -
25/03:30pm - - - - - NNE 11 13 6 7 - - -
25/03:00pm - - - - - N 7 7 4 4 - - -
25/02:30pm - - - - - NE 6 6 3 3 - - -
25/02:00pm - - - - - ENE 7 7 4 4 - - -
25/01:30pm - - - - - E 7 9 4 5 - - -
25/01:00pm - - - - - E 7 7 4 4 - - -
25/12:30pm - - - - - E 6 7 3 4 - - -
25/12:00pm - - - - - ESE 4 6 2 3 - - -
25/11:30am - - - - - ESE 4 6 2 3 - - -
25/11:00am - - - - - SE 6 6 3 3 - - -
25/10:30am - - - - - SSE 6 7 3 4 - - -
25/10:00am - - - - - SSE 7 9 4 5 - - -
25/09:30am - - - - - S 9 11 5 6 - - -
25/09:00am - - - - - S 9 11 5 6 - - -
25/08:30am - - - - - SW 7 7 4 4 - - -
25/08:00am - - - - - SW 6 7 3 4 - - -
25/07:30am - - - - - SSW 4 6 2 3 - - -
25/07:00am - - - - - SSW 4 6 2 3 - - -
25/06:30am - - - - - SSW 4 6 2 3 - - -
25/06:00am - - - - - SW 2 4 1 2 - - -
25/05:30am - - - - - WSW 6 7 3 4 - - -
25/05:00am - - - - - WSW 7 9 4 5 - - -
25/04:30am - - - - - W 6 7 3 4 - - -
25/04:00am - - - - - NW 9 11 5 6 - - -
25/03:30am - - - - - WNW 15 17 8 9 - - -
25/03:00am - - - - - WNW 19 20 10 11 - - -
25/02:30am - - - - - WNW 19 20 10 11 - - -
25/02:00am - - - - - WNW 19 20 10 11 - - -
25/01:30am - - - - - NW 19 20 10 11 - - -
25/01:00am - - - - - NW 20 22 11 12 - - -
25/12:30am - - - - - WNW 24 28 13 15 - - -
25/12:00am - - - - - NW 22 26 12 14 - - -
 
Date/Time
EST
Temp
°C
App
Temp
°C
Dew
Point
Rel
Hum
%
Delta-T
°C
Wind Press
QNH
hPa
Press
MSL
hPa
Rain
since 9 am
mm
Dir
 
Spd
km/h
Gust
km/h
Spd
kts
Gust
kts
24/11:30pm - - - - - NW 22 26 12 14 - - -
24/11:00pm - - - - - NW 20 24 11 13 - - -
24/10:30pm - - - - - WNW 19 20 10 11 - - -
24/10:00pm - - - - - WNW 17 20 9 11 - - -
24/09:30pm - - - - - NNW 22 26 12 14 - - -
24/09:00pm - - - - - NNW 20 22 11 12 - - -
24/08:30pm - - - - - N 20 22 11 12 - - -
24/08:00pm - - - - - N 19 22 10 12 - - -
24/07:30pm - - - - - N 17 20 9 11 - - -
24/07:00pm - - - - - N 17 19 9 10 - - -
24/06:30pm - - - - - N 17 19 9 10 - - -
24/06:00pm - - - - - N 15 17 8 9 - - -
24/05:30pm - - - - - N 15 19 8 10 - - -

Other Formats:

Comma delimited format used in spreadsheet applications
http://www.bom.gov.au/fwo/IDQ60801/IDQ60801.94581.axf

JavaScript Object Notation format (JSON) in row-major order
http://www.bom.gov.au/fwo/IDQ60801/IDQ60801.94581.json